Time,TemperatureF,DewpointF,PressureIn,WindDirection,WindDirectionDegrees,WindSpeedMPH,WindSpeedGustMPH,Humidity,HourlyPrecipIn,Conditions,Clouds,dailyrainin,SoftwareType,DateUTC
2013-04-18 00:04:00,56.8,42.2,30.26,SW,225,0.0,0.0,58,0.00,,,0.00,heavyweathercustom,2013-04-18 04:04:00,
2013-04-18 00:10:00,56.8,42.2,30.26,SW,225,0.0,0.0,58,0.00,,,0.00,heavyweathercustom,2013-04-18 04:10:00,
2013-04-18 00:20:00,56.8,41.7,30.26,SW,225,0.0,0.0,57,0.00,,,0.00,heavyweathercustom,2013-04-18 04:20:00,
2013-04-18 00:34:00,56.7,42.1,30.27,SW,225,0.0,0.0,58,0.00,,,0.00,heavyweathercustom,2013-04-18 04:34:00,
2013-04-18 00:40:00,56.5,41.9,30.26,WSW,248,0.0,0.0,58,0.00,,,0.00,heavyweathercustom,2013-04-18 04:40:00,
2013-04-18 00:50:00,56.8,42.6,30.26,WSW,248,0.0,4.7,59,0.00,,,0.00,heavyweathercustom,2013-04-18 04:50:00,
2013-04-18 01:03:00,56.5,42.8,30.27,East,90,0.0,4.7,60,0.00,,,0.00,heavyweathercustom,2013-04-18 05:03:00,
2013-04-18 01:10:00,56.3,42.6,30.27,SW,225,0.0,4.7,60,0.00,,,0.00,heavyweathercustom,2013-04-18 05:10:00,
2013-04-18 01:20:00,56.1,42.4,30.27,SW,225,0.0,4.7,60,0.00,,,0.00,heavyweathercustom,2013-04-18 05:20:00,
2013-04-18 01:33:00,55.9,42.2,30.26,SW,225,0.0,1.1,60,0.00,,,0.00,heavyweathercustom,2013-04-18 05:33:00,
2013-04-18 01:40:00,55.8,42.6,30.25,SW,225,0.0,1.1,61,0.00,,,0.00,heavyweathercustom,2013-04-18 05:40:00,
2013-04-18 01:50:00,55.6,42.4,30.25,SW,225,0.0,1.1,61,0.00,,,0.00,heavyweathercustom,2013-04-18 05:50:00,
2013-04-18 02:03:00,55.6,42.4,30.25,WSW,248,0.0,2.4,61,0.00,,,0.00,heavyweathercustom,2013-04-18 06:03:00,
2013-04-18 02:10:00,55.4,42.6,30.25,SW,225,0.0,2.4,62,0.00,,,0.00,heavyweathercustom,2013-04-18 06:10:00,
2013-04-18 02:20:00,55.2,42.4,30.25,SW,225,0.0,2.4,62,0.00,,,0.00,heavyweathercustom,2013-04-18 06:20:00,
2013-04-18 02:33:00,55.0,42.2,30.25,WSW,248,0.0,7.7,62,0.00,,,0.00,heavyweathercustom,2013-04-18 06:33:00,
2013-04-18 02:40:00,54.7,41.9,30.25,SW,225,0.0,5.1,62,0.00,,,0.00,heavyweathercustom,2013-04-18 06:40:00,
2013-04-18 02:50:00,54.5,41.7,30.26,WSW,248,0.0,5.1,62,0.00,,,0.00,heavyweathercustom,2013-04-18 06:50:00,
2013-04-18 03:03:00,54.1,41.4,30.26,WSW,248,0.0,5.1,62,0.00,,,0.00,heavyweathercustom,2013-04-18 07:03:00,
2013-04-18 03:10:00,54.0,41.3,30.27,SW,225,0.0,22.0,62,0.00,,,0.00,heavyweathercustom,2013-04-18 07:10:00,
2013-04-18 03:20:00,53.8,41.1,30.28,SW,225,0.0,22.0,62,0.00,,,0.00,heavyweathercustom,2013-04-18 07:20:00,
2013-04-18 03:33:00,53.8,41.5,30.28,SE,135,0.0,22.0,63,0.00,,,0.00,heavyweathercustom,2013-04-18 07:33:00,
2013-04-18 03:40:00,53.6,41.3,30.29,WSW,248,0.0,22.0,63,0.00,,,0.00,heavyweathercustom,2013-04-18 07:40:00,
2013-04-18 03:50:00,53.4,41.5,30.28,SW,225,0.0,22.0,64,0.00,,,0.00,heavyweathercustom,2013-04-18 07:50:00,
2013-04-18 04:03:00,53.4,41.5,30.27,East,90,0.0,4.7,64,0.00,,,0.00,heavyweathercustom,2013-04-18 08:03:00,
2013-04-18 04:10:00,53.4,41.9,30.28,ESE,113,0.0,4.7,65,0.00,,,0.00,heavyweathercustom,2013-04-18 08:10:00,
2013-04-18 04:20:00,53.2,41.7,30.28,WSW,248,0.0,5.1,65,0.00,,,0.00,heavyweathercustom,2013-04-18 08:20:00,
2013-04-18 04:33:00,52.9,41.9,30.28,WSW,248,0.0,5.1,66,0.00,,,0.00,heavyweathercustom,2013-04-18 08:33:00,
2013-04-18 04:40:00,52.7,41.7,30.29,WSW,248,0.0,6.0,66,0.00,,,0.00,heavyweathercustom,2013-04-18 08:40:00,
2013-04-18 04:50:00,52.7,42.1,30.28,WSW,248,0.0,6.0,67,0.00,,,0.00,heavyweathercustom,2013-04-18 08:50:00,
2013-04-18 05:03:00,52.5,42.2,30.28,South,180,0.0,6.0,68,0.00,,,0.00,heavyweathercustom,2013-04-18 09:03:00,
2013-04-18 05:10:00,52.2,42.3,30.28,South,180,0.0,6.0,69,0.00,,,0.00,heavyweathercustom,2013-04-18 09:10:00,
2013-04-18 05:20:00,52.2,42.7,30.28,WSW,248,0.0,6.0,70,0.00,,,0.00,heavyweathercustom,2013-04-18 09:20:00,
2013-04-18 05:33:00,52.0,42.5,30.28,South,180,0.0,6.0,70,0.00,,,0.00,heavyweathercustom,2013-04-18 09:33:00,
2013-04-18 05:40:00,52.0,42.9,30.27,WSW,248,0.0,4.1,71,0.00,,,0.00,heavyweathercustom,2013-04-18 09:40:00,
2013-04-18 05:50:00,52.2,43.1,30.28,WSW,248,0.0,4.1,71,0.00,,,0.00,heavyweathercustom,2013-04-18 09:50:00,
2013-04-18 06:03:00,52.0,43.3,30.27,West,270,0.0,4.1,72,0.00,,,0.00,heavyweathercustom,2013-04-18 10:03:00,
2013-04-18 06:10:00,51.8,43.1,30.29,WSW,248,0.0,4.1,72,0.00,,,0.00,heavyweathercustom,2013-04-18 10:10:00,
2013-04-18 06:20:00,51.6,43.2,30.28,East,90,0.0,6.0,73,0.00,,,0.00,heavyweathercustom,2013-04-18 10:20:00,
2013-04-18 06:33:00,51.6,43.2,30.29,WSW,248,0.0,6.0,73,0.00,,,0.00,heavyweathercustom,2013-04-18 10:33:00,
2013-04-18 06:40:00,51.6,43.2,30.29,SW,225,0.0,27.1,73,0.00,,,0.00,heavyweathercustom,2013-04-18 10:40:00,
2013-04-18 06:50:00,51.8,43.4,30.29,South,180,0.0,27.1,73,0.00,,,0.00,heavyweathercustom,2013-04-18 10:50:00,
2013-04-18 07:03:00,51.8,43.8,30.30,West,270,3.3,27.1,74,0.00,,,0.00,heavyweathercustom,2013-04-18 11:03:00,
2013-04-18 07:10:00,51.6,43.6,30.31,WSW,248,3.3,22.1,74,0.00,,,0.00,heavyweathercustom,2013-04-18 11:10:00,
2013-04-18 07:20:00,51.6,43.6,30.31,WSW,248,3.3,22.1,74,0.00,,,0.00,heavyweathercustom,2013-04-18 11:20:00,
2013-04-18 07:33:00,51.8,43.8,30.30,WSW,248,0.0,22.1,74,0.00,,,0.00,heavyweathercustom,2013-04-18 11:33:00,
2013-04-18 07:40:00,52.0,44.0,30.30,WSW,248,3.3,9.5,74,0.00,,,0.00,heavyweathercustom,2013-04-18 11:40:00,
2013-04-18 07:50:00,52.0,44.3,30.31,SW,225,3.3,9.5,75,0.00,,,0.00,heavyweathercustom,2013-04-18 11:50:00,
2013-04-18 08:03:00,52.2,44.2,30.30,WSW,248,0.0,9.5,74,0.00,,,0.00,heavyweathercustom,2013-04-18 12:03:00,
2013-04-18 08:10:00,53.2,44.8,30.29,South,180,0.0,9.5,73,0.00,,,0.00,heavyweathercustom,2013-04-18 12:10:00,
2013-04-18 08:20:00,54.3,45.1,30.30,SE,135,0.0,9.5,71,0.00,,,0.00,heavyweathercustom,2013-04-18 12:20:00,
2013-04-18 08:33:00,55.0,44.6,30.30,WSW,248,0.0,9.8,68,0.00,,,0.00,heavyweathercustom,2013-04-18 12:33:00,
2013-04-18 08:40:00,55.6,44.4,30.30,ESE,113,0.0,13.1,66,0.00,,,0.00,heavyweathercustom,2013-04-18 12:40:00,
2013-04-18 08:50:00,56.1,43.3,30.30,East,90,0.0,13.1,62,0.00,,,0.00,heavyweathercustom,2013-04-18 12:50:00,
2013-04-18 09:03:00,56.7,43.4,30.30,SW,225,0.0,13.1,61,0.00,,,0.00,heavyweathercustom,2013-04-18 13:03:00,
2013-04-18 09:10:00,56.8,42.6,30.29,WSW,248,15.7,16.0,59,0.00,,,0.00,heavyweathercustom,2013-04-18 13:10:00,
2013-04-18 09:20:00,57.4,43.2,30.30,ESE,113,0.0,16.0,59,0.00,,,0.00,heavyweathercustom,2013-04-18 13:20:00,
2013-04-18 09:33:00,58.1,42.5,30.30,WSW,248,3.3,16.0,56,0.00,,,0.00,heavyweathercustom,2013-04-18 13:33:00,
2013-04-18 09:40:00,58.6,42.5,30.30,SW,225,0.0,16.0,55,0.00,,,0.00,heavyweathercustom,2013-04-18 13:40:00,
2013-04-18 09:50:00,58.8,42.7,30.30,SE,135,0.0,16.0,55,0.00,,,0.00,heavyweathercustom,2013-04-18 13:50:00,
2013-04-18 10:03:00,58.8,42.2,30.31,East,90,0.0,11.7,54,0.00,,,0.00,heavyweathercustom,2013-04-18 14:03:00,
2013-04-18 10:10:00,58.6,42.0,30.31,West,270,15.7,23.7,54,0.00,,,0.00,heavyweathercustom,2013-04-18 14:10:00,
2013-04-18 10:20:00,58.6,42.0,30.32,South,180,0.0,23.7,54,0.00,,,0.00,heavyweathercustom,2013-04-18 14:20:00,
2013-04-18 10:40:00,58.8,42.2,30.31,WSW,248,0.0,16.9,54,0.00,,,0.00,heavyweathercustom,2013-04-18 14:40:00,
2013-04-18 10:50:00,58.8,42.7,30.32,ESE,113,0.0,16.9,55,0.00,,,0.00,heavyweathercustom,2013-04-18 14:50:00,
2013-04-18 11:03:00,58.8,42.2,30.31,North,0,0.0,16.9,54,0.00,,,0.00,heavyweathercustom,2013-04-18 15:03:00,
2013-04-18 11:10:00,58.8,42.7,30.30,ESE,113,0.0,16.9,55,0.00,,,0.00,heavyweathercustom,2013-04-18 15:10:00,
2013-04-18 11:20:00,59.5,43.3,30.31,SE,135,0.0,16.9,55,0.00,,,0.00,heavyweathercustom,2013-04-18 15:20:00,
2013-04-18 11:34:00,59.4,42.7,30.31,South,180,3.3,14.1,54,0.00,,,0.00,heavyweathercustom,2013-04-18 15:34:00,
2013-04-18 11:40:00,59.2,42.6,30.32,SSW,203,0.0,14.1,54,0.00,,,0.00,heavyweathercustom,2013-04-18 15:40:00,
2013-04-18 11:50:00,59.5,42.8,30.31,ENE,68,3.3,14.1,54,0.00,,,0.00,heavyweathercustom,2013-04-18 15:50:00,
2013-04-18 12:04:00,58.8,42.2,30.31,ENE,68,0.0,11.1,54,0.00,,,0.00,heavyweathercustom,2013-04-18 16:04:00,
2013-04-18 12:10:00,58.8,42.7,30.30,WSW,248,0.0,18.8,55,0.00,,,0.00,heavyweathercustom,2013-04-18 16:10:00,
2013-04-18 12:20:00,58.6,43.0,30.30,South,180,0.0,18.8,56,0.00,,,0.00,heavyweathercustom,2013-04-18 16:20:00,
2013-04-18 12:34:00,58.8,43.1,30.30,East,90,0.0,18.8,56,0.00,,,0.00,heavyweathercustom,2013-04-18 16:34:00,
2013-04-18 12:40:00,58.8,43.6,30.30,East,90,0.0,18.8,57,0.00,,,0.00,heavyweathercustom,2013-04-18 16:40:00,
2013-04-18 12:50:00,58.8,43.6,30.30,SSW,203,13.4,14.4,57,0.00,,,0.00,heavyweathercustom,2013-04-18 16:50:00,
2013-04-18 13:04:00,58.3,43.6,30.29,SSW,203,3.3,14.4,58,0.00,,,0.00,heavyweathercustom,2013-04-18 17:04:00,
2013-04-18 13:10:00,58.1,43.8,30.28,WNW,293,0.0,14.4,59,0.00,,,0.00,heavyweathercustom,2013-04-18 17:10:00,
2013-04-18 13:20:00,57.7,43.9,30.28,SSE,158,0.0,15.0,60,0.00,,,0.00,heavyweathercustom,2013-04-18 17:20:00,
2013-04-18 13:34:00,57.7,44.8,30.28,WSW,248,3.3,15.0,62,0.00,,,0.00,heavyweathercustom,2013-04-18 17:34:00,
2013-04-18 13:40:00,57.7,45.2,30.28,ESE,113,0.0,15.0,63,0.00,,,0.00,heavyweathercustom,2013-04-18 17:40:00,
2013-04-18 13:50:00,57.7,45.2,30.27,ENE,68,3.3,15.0,63,0.00,,,0.00,heavyweathercustom,2013-04-18 17:50:00,
2013-04-18 14:04:00,57.4,44.9,30.26,East,90,0.0,13.8,63,0.00,,,0.00,heavyweathercustom,2013-04-18 18:04:00,
2013-04-18 14:10:00,57.6,45.5,30.26,South,180,3.3,25.8,64,0.00,,,0.00,heavyweathercustom,2013-04-18 18:10:00,
2013-04-18 14:20:00,58.3,46.2,30.25,East,90,0.0,25.8,64,0.00,,,0.00,heavyweathercustom,2013-04-18 18:20:00,
2013-04-18 14:34:00,58.8,46.2,30.25,WSW,248,0.0,25.8,63,0.00,,,0.00,heavyweathercustom,2013-04-18 18:34:00,
2013-04-18 14:40:00,59.0,46.4,30.25,WSW,248,0.0,25.8,63,0.00,,,0.00,heavyweathercustom,2013-04-18 18:40:00,
2013-04-18 14:50:00,58.8,46.2,30.25,NNE,23,0.0,19.5,63,0.00,,,0.00,heavyweathercustom,2013-04-18 18:50:00,
2013-04-18 15:03:00,58.8,46.6,30.25,East,90,3.3,19.5,64,0.00,,,0.00,heavyweathercustom,2013-04-18 19:03:00,
2013-04-18 15:10:00,58.8,46.6,30.25,ENE,68,0.0,19.5,64,0.00,,,0.00,heavyweathercustom,2013-04-18 19:10:00,
2013-04-18 15:20:00,58.3,46.6,30.24,SW,225,0.0,19.5,65,0.00,,,0.00,heavyweathercustom,2013-04-18 19:20:00,
2013-04-18 15:33:00,57.7,46.4,30.24,ENE,68,0.0,17.9,66,0.00,,,0.00,heavyweathercustom,2013-04-18 19:33:00,
2013-04-18 15:40:00,57.4,46.5,30.24,SSW,203,0.0,17.9,67,0.00,,,0.00,heavyweathercustom,2013-04-18 19:40:00,
2013-04-18 15:50:00,57.0,46.2,30.24,ENE,68,0.0,17.9,67,0.00,,,0.00,heavyweathercustom,2013-04-18 19:50:00,
2013-04-18 16:03:00,56.8,46.4,30.23,SSW,203,0.0,14.7,68,0.00,,,0.00,heavyweathercustom,2013-04-18 20:03:00,
2013-04-18 16:10:00,56.3,45.9,30.22,WSW,248,3.3,14.7,68,0.00,,,0.00,heavyweathercustom,2013-04-18 20:10:00,
2013-04-18 16:20:00,56.1,46.5,30.22,ENE,68,3.3,15.0,70,0.00,,,0.00,heavyweathercustom,2013-04-18 20:20:00,
2013-04-18 16:33:00,56.1,46.5,30.21,East,90,0.0,15.0,70,0.00,,,0.00,heavyweathercustom,2013-04-18 20:33:00,
2013-04-18 16:40:00,56.1,46.5,30.21,SW,225,0.0,18.2,70,0.00,,,0.00,heavyweathercustom,2013-04-18 20:40:00,
2013-04-18 16:50:00,55.9,46.6,30.21,ESE,113,0.0,18.2,71,0.00,,,0.00,heavyweathercustom,2013-04-18 20:50:00,
2013-04-18 17:03:00,55.8,46.5,30.20,WSW,248,6.8,18.2,71,0.00,,,0.00,heavyweathercustom,2013-04-18 21:03:00,
2013-04-18 17:10:00,55.2,46.7,30.19,West,270,6.8,14.1,73,0.00,,,0.00,heavyweathercustom,2013-04-18 21:10:00,
2013-04-18 17:20:00,55.0,46.9,30.20,SSW,203,0.0,14.1,74,0.00,,,0.00,heavyweathercustom,2013-04-18 21:20:00,
2013-04-18 17:33:00,54.9,47.1,30.20,WSW,248,3.3,14.1,75,0.00,,,0.00,heavyweathercustom,2013-04-18 21:33:00,
2013-04-18 17:40:00,55.0,47.6,30.20,East,90,0.0,14.1,76,0.00,,,0.00,heavyweathercustom,2013-04-18 21:40:00,
2013-04-18 17:50:00,55.0,47.6,30.19,East,90,0.0,11.1,76,0.00,,,0.00,heavyweathercustom,2013-04-18 21:50:00,
2013-04-18 18:03:00,55.0,47.6,30.19,East,90,0.0,11.1,76,0.00,,,0.00,heavyweathercustom,2013-04-18 22:03:00,
2013-04-18 18:10:00,55.0,47.9,30.18,ESE,113,0.0,11.1,77,0.00,,,0.00,heavyweathercustom,2013-04-18 22:10:00,
2013-04-18 18:20:00,54.9,47.8,30.17,SSW,203,3.3,8.7,77,0.00,,,0.00,heavyweathercustom,2013-04-18 22:20:00,
2013-04-18 18:33:00,55.0,47.9,30.17,East,90,0.0,8.7,77,0.00,,,0.00,heavyweathercustom,2013-04-18 22:33:00,
2013-04-18 18:40:00,55.2,48.5,30.17,ENE,68,0.0,7.7,78,0.00,,,0.00,heavyweathercustom,2013-04-18 22:40:00,
2013-04-18 18:50:00,55.2,48.5,30.16,South,180,0.0,7.7,78,0.00,,,0.00,heavyweathercustom,2013-04-18 22:50:00,
2013-04-18 19:03:00,55.2,48.5,30.16,SSW,203,0.0,7.7,78,0.00,,,0.00,heavyweathercustom,2013-04-18 23:03:00,
2013-04-18 19:10:00,55.2,48.5,30.16,SSE,158,0.0,8.1,78,0.00,,,0.00,heavyweathercustom,2013-04-18 23:10:00,
2013-04-18 19:20:00,55.2,48.8,30.17,East,90,0.0,8.1,79,0.00,,,0.00,heavyweathercustom,2013-04-18 23:20:00,
2013-04-18 19:33:00,55.0,48.6,30.17,SSE,158,0.0,8.1,79,0.00,,,0.00,heavyweathercustom,2013-04-18 23:33:00,
2013-04-18 19:40:00,55.2,48.8,30.16,SW,225,0.0,8.1,79,0.00,,,0.00,heavyweathercustom,2013-04-18 23:40:00,
2013-04-18 19:50:00,55.2,48.8,30.16,SSE,158,0.0,8.7,79,0.00,,,0.00,heavyweathercustom,2013-04-18 23:50:00,
2013-04-18 20:03:00,55.2,49.1,30.15,ESE,113,0.0,8.7,80,0.00,,,0.00,heavyweathercustom,2013-04-19 00:03:00,
2013-04-18 20:10:00,55.2,49.1,30.16,ESE,113,0.0,8.7,80,0.00,,,0.00,heavyweathercustom,2013-04-19 00:10:00,
2013-04-18 20:20:00,55.2,49.1,30.15,South,180,0.0,5.1,80,0.00,,,0.00,heavyweathercustom,2013-04-19 00:20:00,
2013-04-18 20:33:00,55.2,49.5,30.15,ESE,113,0.0,5.1,81,0.00,,,0.00,heavyweathercustom,2013-04-19 00:33:00,
2013-04-18 20:40:00,55.6,49.9,30.14,SW,225,0.0,5.1,81,0.00,,,0.00,heavyweathercustom,2013-04-19 00:40:00,
2013-04-18 20:50:00,55.6,49.9,30.14,SSW,203,0.0,5.1,81,0.00,,,0.00,heavyweathercustom,2013-04-19 00:50:00,
2013-04-18 21:04:00,55.8,50.1,30.14,SSW,203,0.0,5.1,81,0.00,,,0.00,heavyweathercustom,2013-04-19 01:04:00,
2013-04-18 21:10:00,55.8,50.4,30.14,WSW,248,0.0,5.1,82,0.00,,,0.00,heavyweathercustom,2013-04-19 01:10:00,
2013-04-18 21:20:00,55.8,50.4,30.14,WSW,248,0.0,5.1,82,0.00,,,0.00,heavyweathercustom,2013-04-19 01:20:00,
2013-04-18 21:34:00,55.8,50.4,30.13,East,90,0.0,9.0,82,0.00,,,0.00,heavyweathercustom,2013-04-19 01:34:00,
2013-04-18 21:40:00,55.6,50.5,30.13,ESE,113,0.0,9.0,83,0.00,,,0.00,heavyweathercustom,2013-04-19 01:40:00,
2013-04-18 21:50:00,55.8,50.7,30.12,SSW,203,0.0,5.1,83,0.00,,,0.00,heavyweathercustom,2013-04-19 01:50:00,
2013-04-18 22:04:00,55.6,50.8,30.12,SSE,158,0.0,5.1,84,0.00,,,0.00,heavyweathercustom,2013-04-19 02:04:00,
2013-04-18 22:10:00,55.4,50.6,30.12,South,180,0.0,5.1,84,0.00,,,0.00,heavyweathercustom,2013-04-19 02:10:00,
2013-04-18 22:20:00,55.2,50.8,30.12,SSW,203,0.0,5.1,85,0.00,,,0.00,heavyweathercustom,2013-04-19 02:20:00,
2013-04-18 22:34:00,55.0,50.6,30.11,SSE,158,0.0,5.1,85,0.00,,,0.00,heavyweathercustom,2013-04-19 02:34:00,
2013-04-18 22:40:00,55.0,50.6,30.11,East,90,0.0,6.8,85,0.00,,,0.00,heavyweathercustom,2013-04-19 02:40:00,
2013-04-18 22:50:00,55.0,50.9,30.11,South,180,0.0,6.8,86,0.00,,,0.00,heavyweathercustom,2013-04-19 02:50:00,
2013-04-18 23:10:00,54.7,50.6,30.09,SSW,203,0.0,6.8,86,0.00,,,0.00,heavyweathercustom,2013-04-19 03:10:00,
2013-04-18 23:20:00,54.7,50.9,30.08,SSW,203,0.0,5.1,87,0.00,,,0.00,heavyweathercustom,2013-04-19 03:20:00,
2013-04-18 23:33:00,54.5,50.7,30.08,East,90,0.0,5.1,87,0.00,,,0.00,heavyweathercustom,2013-04-19 03:33:00,
2013-04-18 23:40:00,54.5,50.7,30.07,SW,225,0.0,5.1,87,0.00,,,0.00,heavyweathercustom,2013-04-19 03:40:00,
2013-04-18 23:50:00,54.5,50.7,30.07,SE,135,0.0,5.1,87,0.00,,,0.00,heavyweathercustom,2013-04-19 03:50:00,